createdAt,value
2023-10-29T00:02:18.133Z,98818.52
2023-10-29T00:04:48.956Z,98817.10
2023-10-29T00:07:16.547Z,98809.46
2023-10-29T00:09:43.977Z,98813.16
2023-10-29T00:12:11.457Z,98815.31
2023-10-29T00:14:38.944Z,98819.88
2023-10-29T00:17:06.415Z,98825.33
2023-10-29T00:19:34.058Z,98823.81
2023-10-29T00:22:01.519Z,98831.74
2023-10-29T00:24:29.043Z,98834.83
2023-10-29T00:26:56.518Z,98839.00
2023-10-29T00:29:23.966Z,98842.92
2023-10-29T00:31:52.892Z,98848.80
2023-10-29T00:34:20.356Z,98851.71
2023-10-29T00:36:47.880Z,98853.68
2023-10-29T00:39:15.417Z,98858.91
2023-10-29T00:41:43.447Z,98855.27
2023-10-29T00:44:11.094Z,98858.75
2023-10-29T00:46:41.872Z,98858.73
2023-10-29T00:49:10.195Z,98860.55
2023-10-29T00:51:37.645Z,98857.12
2023-10-29T00:54:05.257Z,98859.80
2023-10-29T00:56:32.778Z,98865.52
2023-10-29T00:59:00.232Z,98863.64
2023-10-29T01:01:27.875Z,98865.73
2023-10-29T01:03:56.243Z,98869.22
2023-10-29T01:06:23.904Z,98868.01
2023-10-29T01:08:51.841Z,98871.86
2023-10-29T01:11:19.409Z,98873.17
2023-10-29T01:13:46.858Z,98870.92
2023-10-29T01:16:14.444Z,98874.73
2023-10-29T01:18:41.896Z,98876.23
2023-10-29T01:21:10.274Z,98880.79
2023-10-29T01:23:37.896Z,98882.91
2023-10-29T01:26:05.391Z,98889.85
2023-10-29T01:28:32.922Z,98884.96
2023-10-29T01:31:01.670Z,98890.55
2023-10-29T01:33:29.167Z,98895.55
2023-10-29T01:35:56.833Z,98896.55
2023-10-29T01:38:24.320Z,98894.09
2023-10-29T01:40:51.837Z,98892.41
2023-10-29T01:43:19.376Z,98889.80
2023-10-29T01:45:47.092Z,98886.29
2023-10-29T01:48:14.813Z,98884.98
2023-10-29T01:50:42.402Z,98893.17
2023-10-29T01:53:09.906Z,98898.45
2023-10-29T01:55:38.246Z,98898.52
2023-10-29T01:58:05.850Z,98903.27
2023-10-29T02:00:33.437Z,98910.67
2023-10-29T02:03:01.206Z,98916.66
2023-10-29T02:05:32.227Z,98924.55
2023-10-29T02:07:59.767Z,98931.54
2023-10-29T02:10:28.059Z,98936.41
2023-10-29T02:12:55.576Z,98939.01
2023-10-29T02:15:23.372Z,98938.98
2023-10-29T02:17:50.935Z,98943.40
2023-10-29T02:20:18.552Z,98943.50
2023-10-29T02:22:46.177Z,98946.27
2023-10-29T02:25:13.680Z,98952.36
2023-10-29T02:27:41.165Z,98953.85
2023-10-29T02:30:09.134Z,98956.63
2023-10-29T02:32:36.777Z,98959.80
2023-10-29T02:35:04.796Z,98957.41
2023-10-29T02:37:34.908Z,98965.14
2023-10-29T02:40:03.573Z,98969.55
2023-10-29T02:42:31.024Z,98972.72
2023-10-29T02:45:00.384Z,98984.45
2023-10-29T02:47:28.022Z,98994.58
2023-10-29T02:49:55.804Z,99003.61
2023-10-29T02:52:23.369Z,99006.86
2023-10-29T02:54:51.225Z,99012.75
2023-10-29T02:57:18.881Z,99015.48
2023-10-29T02:59:46.452Z,99020.40
2023-10-29T03:02:14.026Z,99021.13
2023-10-29T03:04:41.913Z,99027.17
2023-10-29T03:07:13.133Z,99028.70
2023-10-29T03:09:41.208Z,99036.19
2023-10-29T03:12:08.752Z,99034.76
2023-10-29T03:14:36.374Z,99042.45
2023-10-29T03:17:04.207Z,99043.31
2023-10-29T03:19:31.716Z,99044.73
2023-10-29T03:21:59.262Z,99053.86
2023-10-29T03:24:26.779Z,99058.76
2023-10-29T03:26:54.821Z,99059.45
2023-10-29T03:29:22.347Z,99062.85
2023-10-29T03:31:49.834Z,99067.13
2023-10-29T03:34:17.730Z,99061.77
2023-10-29T03:36:45.264Z,99063.30
2023-10-29T03:39:12.852Z,99067.77
2023-10-29T03:41:40.428Z,99061.71
2023-10-29T03:44:08.300Z,99063.88
2023-10-29T03:46:35.813Z,99062.32
2023-10-29T03:49:03.383Z,99056.64
2023-10-29T03:51:31.413Z,99064.33
2023-10-29T03:53:59.146Z,99054.94
2023-10-29T03:56:26.684Z,99057.19
2023-10-29T03:58:56.509Z,99057.36
2023-10-29T04:01:28.287Z,99053.17
2023-10-29T04:03:56.437Z,99049.27
2023-10-29T04:06:24.492Z,99048.90
2023-10-29T04:08:52.040Z,99045.92
2023-10-29T04:11:19.746Z,99054.27
2023-10-29T04:13:48.205Z,99053.77
2023-10-29T04:16:15.708Z,99050.60
2023-10-29T04:18:43.402Z,99043.84
2023-10-29T04:21:10.837Z,99028.35
2023-10-29T04:23:38.310Z,99018.27
2023-10-29T04:26:05.795Z,99015.42
2023-10-29T04:28:33.305Z,99020.79
2023-10-29T04:31:01.689Z,99027.42
2023-10-29T04:33:29.657Z,99034.33
2023-10-29T04:35:57.541Z,99036.52
2023-10-29T04:38:25.283Z,99041.79
2023-10-29T04:40:53.407Z,99042.83
2023-10-29T04:43:20.884Z,99054.40
2023-10-29T04:45:48.909Z,99061.96
2023-10-29T04:48:17.782Z,99054.83
2023-10-29T04:50:45.539Z,99057.77
2023-10-29T04:53:13.015Z,99062.03
2023-10-29T04:55:40.492Z,99073.81
2023-10-29T04:58:08.029Z,99084.08
2023-10-29T05:00:35.484Z,99089.80
2023-10-29T05:03:06.978Z,99088.98
2023-10-29T05:05:34.662Z,99093.59
2023-10-29T05:08:02.118Z,99101.31
2023-10-29T05:10:30.024Z,99102.86
2023-10-29T05:12:57.995Z,99111.10
2023-10-29T05:15:26.176Z,99114.05
2023-10-29T05:17:53.862Z,99120.23
2023-10-29T05:20:21.337Z,99126.47
2023-10-29T05:22:48.824Z,99132.27
2023-10-29T05:25:16.492Z,99143.22
2023-10-29T05:27:56.412Z,99147.34
2023-10-29T05:30:24.262Z,99157.09
2023-10-29T05:32:51.794Z,99160.02
2023-10-29T05:35:19.491Z,99164.71
2023-10-29T05:37:47.037Z,99159.64
2023-10-29T05:40:14.601Z,99162.60
2023-10-29T05:42:42.201Z,99174.94
2023-10-29T05:45:10.454Z,99174.66
2023-10-29T05:47:38.202Z,99182.02
2023-10-29T05:50:07.446Z,99182.05
2023-10-29T05:52:34.988Z,99188.56
2023-10-29T05:55:02.935Z,99194.74
2023-10-29T05:57:30.591Z,99200.02
2023-10-29T05:59:58.213Z,99205.87
2023-10-29T06:02:33.380Z,99208.59
2023-10-29T06:05:07.398Z,99217.99
2023-10-29T06:07:35.370Z,99221.75
2023-10-29T06:10:02.916Z,99225.45
2023-10-29T06:12:30.731Z,99232.16
2023-10-29T06:14:58.320Z,99236.56
2023-10-29T06:17:27.465Z,99237.38
2023-10-29T06:19:55.305Z,99235.34
2023-10-29T06:22:23.010Z,99236.61
2023-10-29T06:24:50.800Z,99236.70
2023-10-29T06:27:18.560Z,99235.55
2023-10-29T06:29:46.116Z,99237.97
2023-10-29T06:32:13.772Z,99239.38
2023-10-29T06:34:41.237Z,99243.23
2023-10-29T06:37:08.707Z,99244.75
2023-10-29T06:39:36.150Z,99249.71
2023-10-29T06:42:04.091Z,99246.03
2023-10-29T06:44:31.591Z,99245.13
2023-10-29T06:46:59.123Z,99238.38
2023-10-29T06:49:27.205Z,99237.20
2023-10-29T06:51:55.071Z,99253.30
2023-10-29T06:54:22.747Z,99263.67
2023-10-29T06:56:53.087Z,99270.08
2023-10-29T06:59:20.578Z,99280.58
2023-10-29T07:01:51.677Z,99282.41
2023-10-29T07:04:19.362Z,99276.42
2023-10-29T07:06:47.972Z,99278.77
2023-10-29T07:09:18.776Z,99276.23
2023-10-29T07:11:46.649Z,99280.39
2023-10-29T07:14:14.942Z,99283.91
2023-10-29T07:16:45.947Z,99288.54
2023-10-29T07:19:14.399Z,99293.23
2023-10-29T07:21:42.080Z,99294.65
2023-10-29T07:24:09.963Z,99301.46
2023-10-29T07:26:37.656Z,99307.65
2023-10-29T07:29:05.225Z,99301.23
2023-10-29T07:31:32.668Z,99303.50
2023-10-29T07:34:00.168Z,99306.04
2023-10-29T07:36:27.825Z,99310.39
2023-10-29T07:38:55.514Z,99310.29
2023-10-29T07:41:23.434Z,99309.91
2023-10-29T07:43:52.935Z,99307.55
2023-10-29T07:46:21.787Z,99311.80
2023-10-29T07:48:49.264Z,99309.02
2023-10-29T07:51:16.740Z,99311.70
2023-10-29T07:53:47.475Z,99310.92
2023-10-29T07:56:15.210Z,99303.30
2023-10-29T07:58:42.971Z,99300.70
2023-10-29T08:01:14.508Z,99303.83
2023-10-29T08:03:42.617Z,99296.95
2023-10-29T08:06:11.270Z,99297.32
2023-10-29T08:08:39.526Z,99298.57
2023-10-29T08:11:07.590Z,99301.14
2023-10-29T08:13:35.098Z,99306.93
2023-10-29T08:16:04.302Z,99308.91
2023-10-29T08:18:32.059Z,99313.10
2023-10-29T08:21:03.451Z,99314.70
2023-10-29T08:23:32.837Z,99320.14
2023-10-29T08:26:00.381Z,99319.11
2023-10-29T08:28:29.288Z,99322.94
2023-10-29T08:31:00.335Z,99325.84
2023-10-29T08:33:27.976Z,99332.89
2023-10-29T08:35:55.788Z,99340.32
2023-10-29T08:38:23.421Z,99339.27
2023-10-29T08:40:50.973Z,99340.94
2023-10-29T08:43:18.539Z,99343.61
2023-10-29T08:45:46.139Z,99339.73
2023-10-29T08:48:13.850Z,99338.42
2023-10-29T08:50:44.570Z,99340.77
2023-10-29T08:53:12.164Z,99344.89
2023-10-29T08:55:39.720Z,99346.92
2023-10-29T08:58:07.695Z,99359.36
2023-10-29T09:00:45.865Z,99357.77
2023-10-29T09:03:15.371Z,99362.53
2023-10-29T09:05:44.517Z,99370.97
2023-10-29T09:08:14.173Z,99372.01
2023-10-29T09:10:46.893Z,99373.73
2023-10-29T09:13:14.641Z,99380.15
2023-10-29T09:15:43.361Z,99382.42
2023-10-29T09:18:11.068Z,99382.11
2023-10-29T09:20:40.181Z,99386.14
2023-10-29T09:23:07.774Z,99387.02
2023-10-29T09:25:35.351Z,99392.73
2023-10-29T09:28:07.202Z,99389.42
2023-10-29T09:30:34.760Z,99387.09
2023-10-29T09:33:03.069Z,99389.61
2023-10-29T09:35:31.145Z,99390.86
2023-10-29T09:37:58.791Z,99393.25
2023-10-29T09:40:26.749Z,99395.95
2023-10-29T09:42:55.356Z,99401.55
2023-10-29T09:45:27.405Z,99398.45
2023-10-29T09:47:55.175Z,99396.29
2023-10-29T09:50:25.652Z,99393.58
2023-10-29T09:52:54.298Z,99389.91
2023-10-29T09:55:22.252Z,99383.48
2023-10-29T09:57:50.375Z,99388.30
2023-10-29T10:00:18.066Z,99392.25
2023-10-29T10:02:59.545Z,99390.02
2023-10-29T10:05:29.401Z,99393.63
2023-10-29T10:07:57.586Z,99392.81
2023-10-29T10:10:43.465Z,99392.51
2023-10-29T10:13:11.650Z,99395.02
2023-10-29T10:15:39.307Z,99386.65
2023-10-29T10:18:07.265Z,99387.16
2023-10-29T10:20:35.295Z,99391.46
2023-10-29T10:23:04.240Z,99391.21
2023-10-29T10:25:32.749Z,99390.63
2023-10-29T10:28:00.941Z,99389.84
2023-10-29T10:30:31.740Z,99391.02
2023-10-29T10:33:12.688Z,99391.70
2023-10-29T10:35:48.070Z,99385.92
2023-10-29T10:38:16.294Z,99381.65
2023-10-29T10:40:45.918Z,99378.36
2023-10-29T10:43:18.930Z,99378.36
2023-10-29T10:45:51.404Z,99382.80
2023-10-29T10:48:19.383Z,99383.08
2023-10-29T10:50:47.706Z,99382.65
2023-10-29T10:53:15.637Z,99385.58
2023-10-29T10:56:01.351Z,99381.51
2023-10-29T10:58:31.035Z,99379.59
2023-10-29T11:00:58.794Z,99382.27
2023-10-29T11:05:59.321Z,99393.22
2023-10-29T11:08:27.004Z,99398.45
2023-10-29T11:10:58.803Z,99404.05
2023-10-29T11:13:28.164Z,99407.98
2023-10-29T11:15:56.875Z,99411.86
2023-10-29T11:18:31.739Z,99407.44
2023-10-29T11:21:04.983Z,99409.98
2023-10-29T11:23:33.996Z,99412.45
2023-10-29T11:26:21.410Z,99413.73
2023-10-29T11:28:54.191Z,99411.64
2023-10-29T11:31:23.006Z,99411.23
2023-10-29T11:33:56.927Z,99404.09
2023-10-29T11:36:36.637Z,99401.73
2023-10-29T11:39:16.741Z,99400.61
2023-10-29T11:41:45.748Z,99402.02
2023-10-29T11:44:23.384Z,99412.20
2023-10-29T11:46:57.482Z,99413.64
2023-10-29T11:49:26.086Z,99413.35
2023-10-29T11:52:03.428Z,99414.16
2023-10-29T11:54:33.580Z,99422.43
2023-10-29T11:57:01.605Z,99421.33
2023-10-29T11:59:29.236Z,99408.73
2023-10-29T12:01:56.798Z,99408.91
2023-10-29T12:04:33.599Z,99404.66
2023-10-29T12:07:01.567Z,99401.29
2023-10-29T12:09:29.218Z,99400.55
2023-10-29T12:11:57.488Z,99395.91
2023-10-29T12:14:38.871Z,99401.23
2023-10-29T12:17:07.767Z,99403.91
2023-10-29T12:19:39.367Z,99402.08
2023-10-29T12:22:23.883Z,99404.23
2023-10-29T12:24:54.919Z,99406.73
2023-10-29T12:27:25.615Z,99410.73
2023-10-29T12:29:56.545Z,99413.68
2023-10-29T12:32:27.804Z,99419.30
2023-10-29T12:34:57.781Z,99416.21
2023-10-29T12:37:29.186Z,99410.05
2023-10-29T12:40:03.266Z,99407.06
2023-10-29T12:43:06.531Z,99409.72
2023-10-29T12:45:34.109Z,99412.68
2023-10-29T12:48:11.225Z,99411.42
2023-10-29T12:50:52.257Z,99410.60
2023-10-29T12:53:27.095Z,99415.48
2023-10-29T12:55:55.105Z,99416.81
2023-10-29T12:58:22.823Z,99419.38
2023-10-29T13:00:53.011Z,99415.90
2023-10-29T13:03:22.932Z,99411.75
2023-10-29T13:05:50.681Z,99413.43
2023-10-29T13:08:18.913Z,99409.35
2023-10-29T13:10:47.808Z,99410.02
2023-10-29T13:13:16.930Z,99402.86
2023-10-29T13:15:44.973Z,99402.83
2023-10-29T13:18:12.805Z,99402.63
2023-10-29T13:20:40.707Z,99402.78
2023-10-29T13:23:09.086Z,99408.81
2023-10-29T13:25:36.894Z,99423.52
2023-10-29T13:28:05.444Z,99432.30
2023-10-29T13:30:33.515Z,99428.61
2023-10-29T13:33:01.179Z,99429.10
2023-10-29T13:35:28.840Z,99433.63
2023-10-29T13:37:56.921Z,99434.70
2023-10-29T13:40:24.482Z,99440.92
2023-10-29T13:42:52.247Z,99438.16
2023-10-29T13:45:20.143Z,99435.86
2023-10-29T13:47:47.892Z,99437.11
2023-10-29T13:50:15.697Z,99438.52
2023-10-29T13:52:43.201Z,99443.39
2023-10-29T13:55:11.172Z,99442.58
2023-10-29T13:57:38.836Z,99440.88
2023-10-29T14:00:10.289Z,99444.70
2023-10-29T14:02:40.903Z,99453.09
2023-10-29T14:05:08.693Z,99459.13
2023-10-29T14:07:36.864Z,99456.61
2023-10-29T14:10:05.367Z,99460.75
2023-10-29T14:12:34.460Z,99467.70
2023-10-29T14:15:03.184Z,99468.51
2023-10-29T14:17:30.958Z,99472.25
2023-10-29T14:19:58.873Z,99471.45
2023-10-29T14:22:26.999Z,99473.71
2023-10-29T14:24:55.222Z,99482.56
2023-10-29T14:27:24.059Z,99481.08
2023-10-29T14:29:51.959Z,99483.42
2023-10-29T14:32:19.900Z,99484.30
2023-10-29T14:34:47.823Z,99485.99
2023-10-29T14:37:17.057Z,99487.16
2023-10-29T14:39:48.432Z,99488.78
2023-10-29T14:42:16.082Z,99486.80
2023-10-29T14:44:45.875Z,99477.27
2023-10-29T14:47:13.610Z,99471.92
2023-10-29T14:49:41.073Z,99476.34
2023-10-29T14:52:08.893Z,99477.23
2023-10-29T14:54:36.641Z,99485.44
2023-10-29T14:57:17.892Z,99487.69
2023-10-29T14:59:46.380Z,99484.91
2023-10-29T15:02:13.880Z,99486.30
2023-10-29T15:04:44.678Z,99484.08
2023-10-29T15:07:12.154Z,99489.61
2023-10-29T15:09:39.640Z,99486.51
2023-10-29T15:12:08.663Z,99490.28
2023-10-29T15:14:39.281Z,99490.08
2023-10-29T15:17:06.777Z,99489.95
2023-10-29T15:19:37.312Z,99492.73
2023-10-29T15:22:05.453Z,99493.57
2023-10-29T15:24:36.127Z,99490.27
2023-10-29T15:27:04.046Z,99494.86
2023-10-29T15:29:31.561Z,99497.05
2023-10-29T15:31:59.957Z,99494.60
2023-10-29T15:34:27.505Z,99495.42
2023-10-29T15:36:54.961Z,99495.45
2023-10-29T15:39:22.667Z,99494.15
2023-10-29T15:41:50.461Z,99493.93
2023-10-29T15:44:18.549Z,99496.98
2023-10-29T15:46:46.109Z,99498.70
2023-10-29T15:49:16.854Z,99499.36
2023-10-29T15:51:44.550Z,99504.89
2023-10-29T15:54:12.189Z,99505.94
2023-10-29T15:56:39.757Z,99505.45
2023-10-29T15:59:08.894Z,99513.05
2023-10-29T16:01:37.241Z,99511.10
2023-10-29T16:04:05.511Z,99510.88
2023-10-29T16:06:32.982Z,99519.64
2023-10-29T16:09:00.489Z,99523.77
2023-10-29T16:11:27.939Z,99527.92
2023-10-29T16:13:55.473Z,99531.46
2023-10-29T16:16:23.068Z,99532.50
2023-10-29T16:18:51.103Z,99538.38
2023-10-29T16:21:18.674Z,99546.79
2023-10-29T16:23:46.190Z,99548.92
2023-10-29T16:26:13.953Z,99550.31
2023-10-29T16:28:41.560Z,99557.73
2023-10-29T16:31:19.935Z,99558.94
2023-10-29T16:33:48.692Z,99562.96
2023-10-29T16:36:17.748Z,99567.10
2023-10-29T16:38:45.836Z,99563.84
2023-10-29T16:41:18.449Z,99563.70
2023-10-29T16:43:49.296Z,99565.58
2023-10-29T16:46:21.810Z,99571.74
2023-10-29T16:48:49.671Z,99576.20
2023-10-29T16:51:17.444Z,99576.83
2023-10-29T16:53:44.960Z,99582.05
2023-10-29T16:56:13.696Z,99585.16
2023-10-29T16:58:43.697Z,99582.85
2023-10-29T17:01:13.647Z,99582.33
2023-10-29T17:06:58.565Z,99580.88
2023-10-29T17:09:30.065Z,99579.66
2023-10-29T17:11:57.837Z,99578.75
2023-10-29T17:14:25.451Z,99575.65
2023-10-29T17:16:52.956Z,99572.20
2023-10-29T17:19:20.804Z,99572.95
2023-10-29T17:21:48.733Z,99578.39
2023-10-29T17:24:16.341Z,99582.50
2023-10-29T17:26:44.110Z,99580.36
2023-10-29T17:29:12.110Z,99587.23
2023-10-29T17:31:39.894Z,99588.85
2023-10-29T17:34:11.075Z,99589.83
2023-10-29T17:36:39.065Z,99586.67
2023-10-29T17:39:06.947Z,99586.27
2023-10-29T17:41:34.584Z,99589.52
2023-10-29T17:44:02.196Z,99593.17
2023-10-29T17:46:29.806Z,99598.12
2023-10-29T17:48:57.330Z,99601.95
2023-10-29T17:51:24.933Z,99600.82
2023-10-29T17:53:54.339Z,99596.77
2023-10-29T17:56:21.978Z,99590.48
2023-10-29T17:58:50.004Z,99591.32
2023-10-29T18:01:17.712Z,99595.70
2023-10-29T18:03:48.036Z,99602.02
2023-10-29T18:06:20.402Z,99605.95
2023-10-29T18:08:49.099Z,99607.81
2023-10-29T18:11:19.121Z,99610.83
2023-10-29T18:13:47.123Z,99614.82
2023-10-29T18:16:14.840Z,99615.42
2023-10-29T18:18:42.403Z,99616.49
2023-10-29T18:21:10.106Z,99615.70
2023-10-29T18:23:37.706Z,99614.65
2023-10-29T18:26:05.499Z,99620.48
2023-10-29T18:28:33.120Z,99615.99
2023-10-29T18:31:05.558Z,99614.75
2023-10-29T18:33:33.282Z,99615.97
2023-10-29T18:36:08.719Z,99618.20
2023-10-29T18:38:36.826Z,99617.77
2023-10-29T18:41:12.338Z,99617.48
2023-10-29T18:43:40.033Z,99618.23
2023-10-29T18:46:11.708Z,99615.11
2023-10-29T18:48:39.340Z,99614.72
2023-10-29T18:51:07.115Z,99615.15
2023-10-29T18:53:34.737Z,99610.35
2023-10-29T18:56:03.957Z,99605.12
2023-10-29T18:58:31.656Z,99606.92
2023-10-29T19:01:09.552Z,99611.75
2023-10-29T19:03:37.393Z,99612.23
2023-10-29T19:06:09.423Z,99614.52
2023-10-29T19:08:38.303Z,99611.27
2023-10-29T19:11:10.330Z,99613.49
2023-10-29T19:14:03.666Z,99615.17
2023-10-29T19:16:31.428Z,99613.90
2023-10-29T19:18:58.917Z,99610.87
2023-10-29T19:21:26.713Z,99611.56
2023-10-29T19:23:54.333Z,99611.05
2023-10-29T19:26:21.986Z,99605.58
2023-10-29T19:28:49.483Z,99604.86
2023-10-29T19:31:25.633Z,99611.77
2023-10-29T19:33:55.731Z,99611.09
2023-10-29T19:36:26.806Z,99614.33
2023-10-29T19:38:54.407Z,99615.37
2023-10-29T19:41:21.977Z,99616.33
2023-10-29T19:43:49.500Z,99620.14
2023-10-29T19:46:17.079Z,99618.11
2023-10-29T19:48:44.613Z,99611.33
2023-10-29T19:51:12.225Z,99606.20
2023-10-29T19:53:39.857Z,99612.73
2023-10-29T19:56:16.950Z,99612.22
2023-10-29T19:58:44.650Z,99610.16
2023-10-29T20:01:12.195Z,99616.98
2023-10-29T20:03:42.658Z,99610.88
2023-10-29T20:06:11.300Z,99609.52
2023-10-29T20:08:39.941Z,99605.61
2023-10-29T20:11:09.897Z,99604.70
2023-10-29T20:13:42.124Z,99603.55
2023-10-29T20:16:13.245Z,99603.35
2023-10-29T20:18:40.951Z,99599.98
2023-10-29T20:21:19.977Z,99598.52
2023-10-29T20:23:52.323Z,99601.05
2023-10-29T20:26:20.761Z,99596.88
2023-10-29T20:28:52.180Z,99590.27
2023-10-29T20:31:19.915Z,99591.46
2023-10-29T20:33:47.853Z,99590.74
2023-10-29T20:36:15.811Z,99592.29
2023-10-29T20:38:43.569Z,99587.25
2023-10-29T20:41:11.152Z,99586.64
2023-10-29T20:43:39.144Z,99587.47
2023-10-29T20:46:06.857Z,99588.27
2023-10-29T20:48:35.165Z,99590.13
2023-10-29T20:51:02.834Z,99591.70
2023-10-29T20:53:30.540Z,99594.69
2023-10-29T20:55:58.055Z,99590.42
2023-10-29T20:58:25.609Z,99586.99
2023-10-29T21:00:53.153Z,99585.00
2023-10-29T21:03:21.287Z,99581.73
2023-10-29T21:05:56.979Z,99578.40
2023-10-29T21:08:25.527Z,99579.02
2023-10-29T21:11:02.729Z,99569.65
2023-10-29T21:13:30.444Z,99573.52
2023-10-29T21:16:01.282Z,99579.48
2023-10-29T21:18:30.490Z,99587.91
2023-10-29T21:21:03.209Z,99591.13
2023-10-29T21:23:31.270Z,99590.27
2023-10-29T21:25:59.050Z,99591.39
2023-10-29T21:28:29.944Z,99585.64
2023-10-29T21:30:57.767Z,99582.80
2023-10-29T21:33:25.289Z,99583.09
2023-10-29T21:35:53.274Z,99580.92
2023-10-29T21:38:20.737Z,99580.23
2023-10-29T21:40:48.304Z,99582.58
2023-10-29T21:43:15.928Z,99578.48
2023-10-29T21:45:43.517Z,99580.80
2023-10-29T21:48:11.754Z,99577.60
2023-10-29T21:50:42.497Z,99582.01
2023-10-29T21:53:10.623Z,99583.69
2023-10-29T21:55:41.339Z,99585.33
2023-10-29T21:58:11.376Z,99588.32
2023-10-29T22:00:39.022Z,99586.10
2023-10-29T22:03:06.803Z,99586.23
2023-10-29T22:05:34.396Z,99588.26
2023-10-29T22:08:02.128Z,99589.16
2023-10-29T22:10:29.811Z,99588.14
2023-10-29T22:12:57.378Z,99593.42
2023-10-29T22:15:29.393Z,99588.52
2023-10-29T22:17:57.228Z,99588.55
2023-10-29T22:20:25.512Z,99589.85
2023-10-29T22:22:53.043Z,99582.48
2023-10-29T22:25:20.817Z,99582.83
2023-10-29T22:27:48.367Z,99575.03
2023-10-29T22:30:16.209Z,99571.36
2023-10-29T22:32:43.794Z,99572.16
2023-10-29T22:35:11.802Z,99568.84
2023-10-29T22:37:39.360Z,99567.29
2023-10-29T22:40:10.739Z,99569.17
2023-10-29T22:42:38.240Z,99567.67
2023-10-29T22:45:06.229Z,99572.15
2023-10-29T22:47:34.119Z,99572.12
2023-10-29T22:50:01.936Z,99566.70
2023-10-29T22:52:29.434Z,99562.52
2023-10-29T22:54:57.666Z,99561.65
2023-10-29T22:57:25.252Z,99563.08
2023-10-29T22:59:52.894Z,99559.75
2023-10-29T23:02:20.443Z,99557.32
2023-10-29T23:04:47.980Z,99560.98
2023-10-29T23:07:15.433Z,99557.33
2023-10-29T23:09:42.982Z,99560.78
2023-10-29T23:12:10.518Z,99559.83
2023-10-29T23:14:38.077Z,99559.29
2023-10-29T23:17:05.588Z,99558.14
2023-10-29T23:19:33.043Z,99550.91
2023-10-29T23:22:00.483Z,99551.95
2023-10-29T23:24:27.948Z,99558.70
2023-10-29T23:26:55.550Z,99558.15
2023-10-29T23:29:23.949Z,99554.60
2023-10-29T23:31:51.554Z,99551.27
2023-10-29T23:34:19.094Z,99552.39
2023-10-29T23:36:46.521Z,99549.94
2023-10-29T23:39:14.065Z,99547.64
2023-10-29T23:41:41.556Z,99552.05
2023-10-29T23:44:09.113Z,99547.87
2023-10-29T23:46:36.693Z,99545.84
2023-10-29T23:49:04.330Z,99542.77
2023-10-29T23:51:31.869Z,99542.65
2023-10-29T23:53:59.437Z,99539.64
2023-10-29T23:56:27.031Z,99537.90
2023-10-29T23:58:54.478Z,99539.44
